createdAt,value
2023-06-20T00:01:04.066Z,20.20
2023-06-20T00:06:07.609Z,20.20
2023-06-20T00:11:10.984Z,20.00
2023-06-20T00:16:22.063Z,20.00
2023-06-20T00:21:27.202Z,20.00
2023-06-20T00:26:30.847Z,19.70
2023-06-20T00:31:35.574Z,19.10
2023-06-20T00:36:39.855Z,19.20
2023-06-20T00:41:43.122Z,19.40
2023-06-20T00:46:47.823Z,19.40
2023-06-20T00:51:52.182Z,19.40
2023-06-20T00:56:56.072Z,19.50
2023-06-20T01:02:00.739Z,19.40
2023-06-20T01:07:13.853Z,19.40
2023-06-20T01:12:22.484Z,19.10
2023-06-20T01:17:33.385Z,19.10
2023-06-20T01:22:47.704Z,18.90
2023-06-20T01:27:58.001Z,18.60
2023-06-20T01:33:05.281Z,18.50
2023-06-20T01:38:11.746Z,18.20
2023-06-20T01:43:19.131Z,18.20
2023-06-20T01:48:27.239Z,18.20
2023-06-20T01:53:34.492Z,18.40
2023-06-20T01:58:41.910Z,18.30
2023-06-20T02:03:45.900Z,18.30
2023-06-20T02:08:51.577Z,18.30
2023-06-20T02:13:56.819Z,18.10
2023-06-20T02:19:00.127Z,17.90
2023-06-20T02:24:08.061Z,17.90
2023-06-20T02:29:12.948Z,17.70
2023-06-20T02:34:19.846Z,17.70
2023-06-20T02:39:25.946Z,17.90
2023-06-20T02:44:29.468Z,17.90
2023-06-20T02:49:41.517Z,17.70
2023-06-20T02:54:50.748Z,17.90
2023-06-20T03:00:01.162Z,17.90
2023-06-20T03:05:09.030Z,17.80
2023-06-20T03:10:14.843Z,17.80
2023-06-20T03:15:18.143Z,17.70
2023-06-20T03:20:21.754Z,17.50
2023-06-20T03:25:26.867Z,17.20
2023-06-20T03:30:30.433Z,17.10
2023-06-20T03:35:34.053Z,17.00
2023-06-20T03:40:38.796Z,17.00
2023-06-20T03:45:42.210Z,17.20
2023-06-20T03:50:45.620Z,17.40
2023-06-20T03:55:52.152Z,17.70
2023-06-20T04:00:55.627Z,17.90
2023-06-20T04:06:02.458Z,17.80
2023-06-20T04:11:07.463Z,17.90
2023-06-20T04:16:10.779Z,17.60
2023-06-20T04:21:14.299Z,17.90
2023-06-20T04:26:20.145Z,18.40
2023-06-20T04:31:23.766Z,18.50
2023-06-20T04:36:28.232Z,18.50
2023-06-20T04:41:35.253Z,18.40
2023-06-20T04:46:39.802Z,18.50
2023-06-20T04:51:43.487Z,18.30
2023-06-20T04:56:48.253Z,18.30
2023-06-20T05:01:52.515Z,18.30
2023-06-20T05:06:56.342Z,18.80
2023-06-20T05:12:05.195Z,19.40
2023-06-20T05:17:09.008Z,20.00
2023-06-20T05:22:12.296Z,20.50
2023-06-20T05:27:16.971Z,20.80
2023-06-20T05:32:20.383Z,23.70
2023-06-20T05:37:23.739Z,20.20
2023-06-20T05:42:28.445Z,20.00
2023-06-20T05:47:31.716Z,20.20
2023-06-20T05:52:37.144Z,20.20
2023-06-20T05:57:41.838Z,20.80
2023-06-20T06:02:46.542Z,21.50
2023-06-20T06:07:50.417Z,21.40
2023-06-20T06:12:55.097Z,22.40
2023-06-20T06:17:58.467Z,25.60
2023-06-20T06:23:01.835Z,23.50
2023-06-20T06:28:06.618Z,23.20
2023-06-20T06:33:10.570Z,23.90
2023-06-20T06:38:14.325Z,24.10
2023-06-20T06:43:18.967Z,24.90
2023-06-20T06:48:26.263Z,25.10
2023-06-20T06:53:29.668Z,24.50
2023-06-20T06:58:34.296Z,24.00
2023-06-20T07:03:37.663Z,23.50
2023-06-20T07:08:40.933Z,23.50
2023-06-20T07:13:45.642Z,22.80
2023-06-20T07:18:48.947Z,23.60
2023-06-20T07:23:52.236Z,23.60
2023-06-20T07:28:57.038Z,23.30
2023-06-20T07:34:00.385Z,22.90
2023-06-20T07:39:03.971Z,23.10
2023-06-20T07:44:12.077Z,23.40
2023-06-20T07:49:15.409Z,23.40
2023-06-20T07:54:18.962Z,24.80
2023-06-20T07:59:23.708Z,23.40
2023-06-20T08:04:27.193Z,23.30
2023-06-20T08:09:30.494Z,23.20
2023-06-20T08:14:35.121Z,23.30
2023-06-20T08:19:38.457Z,23.40
2023-06-20T08:24:41.808Z,23.60
2023-06-20T08:29:46.465Z,23.80
2023-06-20T08:34:53.539Z,23.80
2023-06-20T08:39:58.530Z,24.10
2023-06-20T08:45:03.995Z,24.30
2023-06-20T08:50:08.696Z,24.20
2023-06-20T08:55:12.977Z,24.60
2023-06-20T09:00:20.872Z,24.80
2023-06-20T09:05:24.407Z,24.80
2023-06-20T09:10:28.304Z,25.50
2023-06-20T09:15:34.763Z,26.10
2023-06-20T09:20:38.083Z,27.40
2023-06-20T09:25:42.010Z,26.90
2023-06-20T09:30:49.998Z,29.40
2023-06-20T09:35:53.490Z,28.80
2023-06-20T09:40:56.754Z,30.50
2023-06-20T09:46:01.665Z,32.50
2023-06-20T09:51:06.650Z,32.30
2023-06-20T09:56:12.671Z,32.70
2023-06-20T10:01:22.464Z,33.70
2023-06-20T10:06:26.566Z,30.80
2023-06-20T10:11:30.337Z,31.70
2023-06-20T10:16:35.681Z,32.40
2023-06-20T10:21:55.778Z,30.30
2023-06-20T10:27:02.247Z,30.80
2023-06-20T10:32:08.287Z,32.70
2023-06-20T10:37:17.240Z,32.20
2023-06-20T10:42:40.240Z,34.00
2023-06-20T10:47:44.999Z,33.50
2023-06-20T10:52:48.334Z,33.90
2023-06-20T10:57:52.779Z,33.50
2023-06-20T11:02:58.606Z,33.00
2023-06-20T11:08:05.915Z,33.70
2023-06-20T11:13:09.619Z,33.80
2023-06-20T11:18:14.419Z,33.10
2023-06-20T11:23:17.786Z,32.70
2023-06-20T11:28:21.298Z,34.80
2023-06-20T11:33:33.691Z,34.60
2023-06-20T11:38:41.349Z,35.80
2023-06-20T11:43:45.831Z,36.40
2023-06-20T11:48:54.922Z,36.50
2023-06-20T11:54:06.525Z,35.80
2023-06-20T11:59:11.469Z,35.90
2023-06-20T12:04:21.202Z,34.80
2023-06-20T12:09:25.110Z,38.40
2023-06-20T12:14:28.410Z,36.40
2023-06-20T12:19:33.537Z,36.30
2023-06-20T12:24:38.071Z,36.50
2023-06-20T12:29:41.411Z,37.00
2023-06-20T12:34:46.096Z,34.50
2023-06-20T12:39:49.633Z,35.20
2023-06-20T12:44:53.248Z,37.20
2023-06-20T12:49:57.981Z,37.00
2023-06-20T12:55:01.996Z,35.20
2023-06-20T13:00:07.121Z,33.70
2023-06-20T13:05:12.768Z,36.60
2023-06-20T13:10:17.840Z,38.00
2023-06-20T13:15:25.919Z,38.80
2023-06-20T13:20:30.962Z,37.00
2023-06-20T13:25:34.555Z,36.70
2023-06-20T13:30:38.118Z,37.60
2023-06-20T13:35:42.936Z,37.60
2023-06-20T13:40:46.818Z,37.00
2023-06-20T13:45:50.267Z,37.00
2023-06-20T13:50:54.968Z,37.60
2023-06-20T13:55:58.260Z,37.30
2023-06-20T14:01:01.641Z,37.00
2023-06-20T14:06:06.536Z,37.10
2023-06-20T14:11:09.980Z,37.60
2023-06-20T14:16:13.409Z,37.40
2023-06-20T14:21:19.521Z,37.90
2023-06-20T14:26:22.842Z,39.00
2023-06-20T14:31:26.260Z,37.60
2023-06-20T14:36:36.178Z,40.10
2023-06-20T14:41:39.509Z,39.90
2023-06-20T14:46:42.880Z,40.00
2023-06-20T14:51:47.614Z,40.40
2023-06-20T14:56:50.957Z,38.10
2023-06-20T15:01:54.590Z,37.60
2023-06-20T15:06:59.329Z,37.30
2023-06-20T15:12:02.874Z,37.70
2023-06-20T15:17:06.718Z,39.20
2023-06-20T15:22:11.532Z,39.60
2023-06-20T15:27:15.215Z,39.00
2023-06-20T15:32:18.515Z,39.80
2023-06-20T15:37:23.229Z,39.50
2023-06-20T15:42:26.647Z,37.80
2023-06-20T15:47:30.038Z,35.90
2023-06-20T15:52:34.790Z,32.90
2023-06-20T15:57:39.794Z,34.00
2023-06-20T16:02:43.536Z,34.00
2023-06-20T16:07:48.296Z,33.80
2023-06-20T16:12:51.744Z,33.30
2023-06-20T16:17:55.116Z,32.80
2023-06-20T16:23:00.439Z,32.50
2023-06-20T16:28:03.835Z,32.40
2023-06-20T16:33:08.253Z,32.30
2023-06-20T16:38:13.656Z,32.30
2023-06-20T16:43:17.484Z,32.10
2023-06-20T16:48:21.359Z,32.00
2023-06-20T16:53:26.201Z,32.00
2023-06-20T16:58:29.494Z,31.90
2023-06-20T17:03:32.917Z,31.80
2023-06-20T17:08:37.624Z,31.70
2023-06-20T17:13:41.839Z,31.60
2023-06-20T17:18:45.068Z,31.00
2023-06-20T17:23:49.853Z,30.70
2023-06-20T17:28:53.216Z,30.70
2023-06-20T17:33:56.604Z,30.60
2023-06-20T17:39:01.484Z,30.60
2023-06-20T17:44:04.814Z,30.60
2023-06-20T17:49:08.282Z,30.40
2023-06-20T17:54:12.934Z,30.20
2023-06-20T17:59:16.252Z,30.10
2023-06-20T18:04:19.537Z,30.00
2023-06-20T18:09:24.544Z,29.80
2023-06-20T18:14:28.025Z,29.60
2023-06-20T18:19:40.025Z,29.50
2023-06-20T18:24:51.689Z,29.30
2023-06-20T18:29:54.931Z,29.10
2023-06-20T18:34:58.204Z,28.90
2023-06-20T18:40:03.433Z,28.60
2023-06-20T18:45:07.856Z,28.40
2023-06-20T18:50:11.498Z,28.20
2023-06-20T18:55:16.183Z,28.10
2023-06-20T19:00:19.912Z,27.80
2023-06-20T19:05:23.396Z,27.60
2023-06-20T19:10:28.280Z,27.60
2023-06-20T19:15:32.386Z,27.10
2023-06-20T19:20:39.472Z,26.90
2023-06-20T19:25:44.247Z,26.80
2023-06-20T19:30:47.985Z,26.80
2023-06-20T19:35:51.326Z,26.60
2023-06-20T19:40:56.092Z,26.40
2023-06-20T19:45:59.484Z,26.50
2023-06-20T19:51:02.878Z,26.50
2023-06-20T19:56:08.609Z,26.40
2023-06-20T20:01:12.217Z,26.30
2023-06-20T20:06:15.992Z,26.20
2023-06-20T20:11:21.287Z,26.10
2023-06-20T20:16:24.759Z,26.20
2023-06-20T20:21:28.191Z,26.10
2023-06-20T20:26:33.303Z,26.00
2023-06-20T20:31:37.613Z,25.80
2023-06-20T20:36:41.313Z,25.80
2023-06-20T20:41:49.043Z,25.70
2023-06-20T20:46:52.366Z,25.40
2023-06-20T20:51:55.745Z,25.30
2023-06-20T20:57:00.700Z,25.10
2023-06-20T21:02:04.556Z,25.10
2023-06-20T21:07:09.431Z,22.90
2023-06-20T21:12:14.129Z,20.40
2023-06-20T21:17:17.686Z,20.00
2023-06-20T21:22:21.317Z,20.40
2023-06-20T21:27:26.109Z,20.30
2023-06-20T21:32:29.503Z,20.50
2023-06-20T21:37:33.186Z,20.20
2023-06-20T21:42:38.233Z,20.00
2023-06-20T21:47:41.700Z,20.00
2023-06-20T21:52:45.376Z,20.10
2023-06-20T21:57:50.166Z,19.90
2023-06-20T22:02:53.714Z,19.80
2023-06-20T22:07:57.093Z,19.80
2023-06-20T22:13:01.781Z,20.20
2023-06-20T22:18:05.545Z,20.30
2023-06-20T22:23:09.987Z,20.10
2023-06-20T22:28:14.751Z,19.50
2023-06-20T22:33:19.108Z,19.50
2023-06-20T22:38:22.414Z,19.00
2023-06-20T22:43:27.067Z,19.10
2023-06-20T22:48:30.430Z,19.20
2023-06-20T22:53:33.718Z,19.10
2023-06-20T22:58:38.389Z,19.30
2023-06-20T23:03:42.101Z,19.00
2023-06-20T23:08:45.860Z,19.00
2023-06-20T23:13:50.544Z,19.20
2023-06-20T23:18:55.350Z,19.20
2023-06-20T23:23:58.931Z,19.10
2023-06-20T23:29:04.576Z,19.00
2023-06-20T23:34:08.255Z,18.90
2023-06-20T23:39:11.810Z,18.80
2023-06-20T23:44:16.510Z,18.80
2023-06-20T23:49:19.939Z,18.80
2023-06-20T23:54:24.188Z,18.90
2023-06-20T23:59:28.854Z,18.70
